createdAt,value
2017-11-14T00:00:14.087Z,102007.17
2017-11-14T00:02:40.749Z,101994.51
2017-11-14T00:05:06.955Z,101993.23
2017-11-14T00:07:33.151Z,101998.48
2017-11-14T00:09:59.412Z,102001.98
2017-11-14T00:12:25.612Z,102002.85
2017-11-14T00:14:51.815Z,101999.78
2017-11-14T00:17:18.384Z,102000.66
2017-11-14T00:19:44.614Z,101997.59
2017-11-14T00:22:11.175Z,101994.52
2017-11-14T00:24:37.788Z,101996.28
2017-11-14T00:27:03.993Z,101988.88
2017-11-14T00:29:30.449Z,101993.67
2017-11-14T00:31:56.788Z,101998.03
2017-11-14T00:34:23.225Z,101993.67
2017-11-14T00:36:49.427Z,101988.00
2017-11-14T00:39:15.671Z,101994.56
2017-11-14T00:41:41.890Z,101995.42
2017-11-14T00:44:08.109Z,101986.68
2017-11-14T00:46:34.696Z,101988.43
2017-11-14T00:49:01.145Z,101983.19
2017-11-14T00:51:27.678Z,101987.10
2017-11-14T00:53:54.314Z,101983.19
2017-11-14T00:56:20.534Z,101991.92
2017-11-14T00:58:46.739Z,101990.15
2017-11-14T01:01:13.245Z,101986.23
2017-11-14T01:03:39.452Z,101997.61
2017-11-14T01:06:05.651Z,101995.41
2017-11-14T01:08:32.001Z,101999.36
2017-11-14T01:10:58.455Z,101999.34
2017-11-14T01:13:24.883Z,102000.64
2017-11-14T01:15:51.400Z,102009.83
2017-11-14T01:18:17.846Z,102009.83
2017-11-14T01:20:44.274Z,102007.63
2017-11-14T01:23:10.547Z,102013.78
2017-11-14T01:25:36.740Z,102022.94
2017-11-14T01:28:02.944Z,102020.78
2017-11-14T01:30:29.299Z,102021.65
2017-11-14T01:32:55.510Z,102009.84
2017-11-14T01:35:21.701Z,102008.53
2017-11-14T01:37:47.962Z,102008.98
2017-11-14T01:40:14.170Z,102008.98
2017-11-14T01:42:40.379Z,102001.51
2017-11-14T01:45:06.710Z,102004.14
2017-11-14T01:47:33.248Z,102004.14
2017-11-14T01:49:59.443Z,102011.17
2017-11-14T01:52:25.972Z,102006.37
2017-11-14T01:54:52.186Z,102015.53
2017-11-14T01:57:18.381Z,102015.95
2017-11-14T01:59:44.655Z,102015.95
2017-11-14T02:02:10.847Z,102008.53
2017-11-14T02:04:37.035Z,102001.11
2017-11-14T02:07:03.326Z,102001.54
2017-11-14T02:09:29.778Z,101998.03
2017-11-14T02:11:55.986Z,101997.62
2017-11-14T02:14:22.332Z,102003.28
2017-11-14T02:16:48.779Z,102001.52
2017-11-14T02:19:14.974Z,102002.83
2017-11-14T02:21:41.243Z,102008.97
2017-11-14T02:24:07.690Z,102015.53
2017-11-14T02:26:33.949Z,102012.91
2017-11-14T02:29:00.302Z,102008.98
2017-11-14T02:31:26.495Z,102003.72
2017-11-14T02:33:52.708Z,102000.21
2017-11-14T02:36:19.334Z,101993.70
2017-11-14T02:38:45.552Z,101993.70
2017-11-14T02:41:11.812Z,101985.83
2017-11-14T02:43:38.058Z,101985.81
2017-11-14T02:46:04.252Z,101980.55
2017-11-14T02:48:30.742Z,101967.48
2017-11-14T02:50:57.162Z,101976.17
2017-11-14T02:53:23.373Z,101973.55
2017-11-14T02:55:49.641Z,101971.39
2017-11-14T02:58:16.343Z,101967.02
2017-11-14T03:00:42.730Z,101965.70
2017-11-14T03:03:08.927Z,101970.05
2017-11-14T03:05:35.187Z,101964.80
2017-11-14T03:08:01.402Z,101967.87
2017-11-14T03:10:27.609Z,101972.27
2017-11-14T03:12:54.335Z,101972.26
2017-11-14T03:15:20.560Z,101970.48
2017-11-14T03:17:46.760Z,101959.58
2017-11-14T03:20:13.019Z,101952.16
2017-11-14T03:22:39.436Z,101948.24
2017-11-14T03:25:05.641Z,101958.28
2017-11-14T03:27:32.221Z,101955.26
2017-11-14T03:29:58.671Z,101958.75
2017-11-14T03:32:24.895Z,101963.98
2017-11-14T03:34:51.385Z,101952.21
2017-11-14T03:37:17.876Z,101954.80
2017-11-14T03:39:44.330Z,101948.27
2017-11-14T03:42:10.525Z,101949.54
2017-11-14T03:44:36.889Z,101950.44
2017-11-14T03:47:03.088Z,101950.42
2017-11-14T03:49:29.286Z,101942.14
2017-11-14T03:51:55.589Z,101947.39
2017-11-14T03:54:21.782Z,101950.44
2017-11-14T03:56:47.976Z,101947.39
2017-11-14T03:59:14.908Z,101946.08
2017-11-14T04:01:41.124Z,101950.02
2017-11-14T04:04:07.566Z,101948.24
2017-11-14T04:06:33.858Z,101940.40
2017-11-14T04:09:00.059Z,101939.11
2017-11-14T04:11:26.646Z,101936.89
2017-11-14T04:13:52.913Z,101934.27
2017-11-14T04:16:19.130Z,101931.67
2017-11-14T04:18:45.614Z,101932.09
2017-11-14T04:21:11.880Z,101934.70
2017-11-14T04:23:38.066Z,101937.30
2017-11-14T04:26:04.263Z,101927.67
2017-11-14T04:28:30.973Z,101929.88
2017-11-14T04:30:57.186Z,101930.72
2017-11-14T04:33:23.394Z,101931.19
2017-11-14T04:35:49.648Z,101927.67
2017-11-14T04:38:15.884Z,101930.31
2017-11-14T04:40:42.081Z,101923.33
2017-11-14T04:43:08.658Z,101929.91
2017-11-14T04:45:34.873Z,101922.89
2017-11-14T04:48:01.097Z,101914.59
2017-11-14T04:50:27.761Z,101923.77
2017-11-14T04:52:54.067Z,101920.70
2017-11-14T04:55:20.252Z,101913.73
2017-11-14T04:57:46.495Z,101922.03
2017-11-14T05:00:12.930Z,101922.05
2017-11-14T05:02:39.157Z,101923.79
2017-11-14T05:05:05.978Z,101927.30
2017-11-14T05:07:32.173Z,101938.23
2017-11-14T05:09:58.613Z,101935.60
2017-11-14T05:12:24.949Z,101933.84
2017-11-14T05:14:51.152Z,101934.31
2017-11-14T05:17:17.364Z,101935.16
2017-11-14T05:19:43.934Z,101932.55
2017-11-14T05:22:10.372Z,101934.28
2017-11-14T05:24:36.579Z,101935.98
2017-11-14T05:27:03.464Z,101935.12
2017-11-14T05:29:29.908Z,101939.52
2017-11-14T05:31:56.117Z,101932.09
2017-11-14T05:34:22.364Z,101934.25
2017-11-14T05:36:48.576Z,101934.67
2017-11-14T05:39:14.779Z,101933.36
2017-11-14T05:41:41.116Z,101931.22
2017-11-14T05:44:07.336Z,101928.58
2017-11-14T05:46:33.806Z,101930.72
2017-11-14T05:49:00.148Z,101929.00
2017-11-14T05:51:26.588Z,101929.45
2017-11-14T05:53:52.815Z,101929.44
2017-11-14T05:56:19.068Z,101923.80
2017-11-14T05:58:45.512Z,101921.18
2017-11-14T06:01:11.972Z,101918.97
2017-11-14T06:03:38.477Z,101920.30
2017-11-14T06:06:04.782Z,101921.17
2017-11-14T06:08:31.000Z,101916.79
2017-11-14T06:10:57.286Z,101919.86
2017-11-14T06:13:23.728Z,101928.60
2017-11-14T06:15:51.932Z,101924.23
2017-11-14T06:18:20.196Z,101919.88
2017-11-14T06:20:47.123Z,101925.12
2017-11-14T06:23:14.082Z,101913.34
2017-11-14T06:25:41.352Z,101912.47
2017-11-14T06:28:07.826Z,101905.50
2017-11-14T06:30:34.028Z,101911.59
2017-11-14T06:33:00.272Z,101919.47
2017-11-14T06:35:26.451Z,101916.83
2017-11-14T06:37:52.654Z,101913.34
2017-11-14T06:40:18.985Z,101917.29
2017-11-14T06:42:45.188Z,101917.72
2017-11-14T06:45:11.382Z,101920.36
2017-11-14T06:47:37.640Z,101922.09
2017-11-14T06:50:04.066Z,101919.47
2017-11-14T06:52:30.282Z,101928.20
2017-11-14T06:54:56.596Z,101919.89
2017-11-14T06:57:22.801Z,101922.53
2017-11-14T06:59:49.032Z,101925.13
2017-11-14T07:02:15.342Z,101936.48
2017-11-14T07:04:41.784Z,101932.11
2017-11-14T07:07:08.017Z,101926.87
2017-11-14T07:09:34.599Z,101926.41
2017-11-14T07:12:00.827Z,101927.73
2017-11-14T07:14:27.053Z,101931.67
2017-11-14T07:16:53.325Z,101926.45
2017-11-14T07:19:19.528Z,101928.61
2017-11-14T07:21:45.724Z,101925.12
2017-11-14T07:24:12.043Z,101926.88
2017-11-14T07:26:38.263Z,101930.36
2017-11-14T07:29:04.732Z,101928.16
2017-11-14T07:31:31.220Z,101928.63
2017-11-14T07:33:57.403Z,101932.11
2017-11-14T07:36:23.626Z,101936.92
2017-11-14T07:38:50.302Z,101934.77
2017-11-14T07:41:16.522Z,101942.61
2017-11-14T07:43:42.748Z,101936.02
2017-11-14T07:46:09.409Z,101934.72
2017-11-14T07:48:35.852Z,101928.16
2017-11-14T07:51:02.059Z,101929.45
2017-11-14T07:53:28.619Z,101930.30
2017-11-14T07:55:54.906Z,101926.37
2017-11-14T07:58:21.125Z,101922.03
2017-11-14T08:00:47.505Z,101931.20
2017-11-14T08:03:13.718Z,101928.57
2017-11-14T08:05:39.937Z,101932.91
2017-11-14T08:08:06.303Z,101932.02
2017-11-14T08:10:32.495Z,101934.20
2017-11-14T08:12:58.710Z,101929.84
2017-11-14T08:15:24.965Z,101928.09
2017-11-14T08:17:51.409Z,101931.58
2017-11-14T08:20:17.620Z,101926.33
2017-11-14T08:22:44.210Z,101926.77
2017-11-14T08:25:10.405Z,101923.73
2017-11-14T08:27:36.622Z,101925.93
2017-11-14T08:30:02.947Z,101929.88
2017-11-14T08:32:29.158Z,101920.28
2017-11-14T08:34:55.385Z,101919.41
2017-11-14T08:37:22.631Z,101916.34
2017-11-14T08:39:48.849Z,101922.02
2017-11-14T08:42:15.301Z,101931.63
2017-11-14T08:44:41.596Z,101925.92
2017-11-14T08:47:07.796Z,101929.89
2017-11-14T08:49:34.023Z,101935.11
2017-11-14T08:52:00.377Z,101934.66
2017-11-14T08:54:26.563Z,101942.96
2017-11-14T08:56:52.855Z,101929.89
2017-11-14T08:59:19.210Z,101929.46
2017-11-14T09:01:45.413Z,101932.48
2017-11-14T09:04:11.655Z,101932.95
2017-11-14T09:06:37.922Z,101925.51
2017-11-14T09:11:35.937Z,101911.97
2017-11-14T09:14:02.612Z,101904.09
2017-11-14T09:16:28.856Z,101899.75
2017-11-14T09:18:55.088Z,101903.23
2017-11-14T09:21:21.905Z,101895.78
2017-11-14T09:23:48.111Z,101910.22
2017-11-14T09:26:14.316Z,101899.71
2017-11-14T09:28:40.691Z,101915.88
2017-11-14T09:31:07.214Z,101908.45
2017-11-14T09:33:33.418Z,101911.48
2017-11-14T09:35:59.946Z,101902.33
2017-11-14T09:38:26.158Z,101895.77
2017-11-14T09:40:52.527Z,101896.64
2017-11-14T09:43:18.822Z,101900.14
2017-11-14T09:45:45.040Z,101903.66
2017-11-14T09:48:11.252Z,101895.78
2017-11-14T09:50:37.509Z,101897.97
2017-11-14T09:53:04.059Z,101904.52
2017-11-14T09:55:30.260Z,101908.91
2017-11-14T09:57:56.579Z,101906.72
2017-11-14T10:00:23.255Z,101901.49
2017-11-14T10:02:49.463Z,101903.67
2017-11-14T10:05:15.808Z,101902.38
2017-11-14T10:07:42.158Z,101897.56
2017-11-14T10:10:14.619Z,101901.47
2017-11-14T10:12:40.898Z,101896.69
2017-11-14T10:15:07.152Z,101895.36
2017-11-14T10:17:33.587Z,101899.25
2017-11-14T10:19:59.956Z,101890.97
2017-11-14T10:22:26.196Z,101869.11
2017-11-14T10:24:52.447Z,101866.02
2017-11-14T10:27:18.736Z,101861.67
2017-11-14T10:29:44.952Z,101857.76
2017-11-14T10:32:11.177Z,101842.02
2017-11-14T10:34:37.740Z,101842.91
2017-11-14T10:37:03.950Z,101840.27
2017-11-14T10:39:30.152Z,101843.34
2017-11-14T10:41:56.761Z,101845.09
2017-11-14T10:44:23.227Z,101843.37
2017-11-14T10:46:49.494Z,101836.82
2017-11-14T10:49:15.792Z,101836.40
2017-11-14T10:51:42.123Z,101824.14
2017-11-14T10:54:08.342Z,101832.00
2017-11-14T10:56:34.727Z,101828.52
2017-11-14T10:59:00.977Z,101815.02
2017-11-14T11:01:27.560Z,101823.34
2017-11-14T11:03:54.077Z,101812.87
2017-11-14T11:06:20.542Z,101814.20
2017-11-14T11:08:46.879Z,101815.03
2017-11-14T11:11:13.412Z,101816.81
2017-11-14T11:13:39.788Z,101814.64
2017-11-14T11:16:06.037Z,101813.36
2017-11-14T11:18:32.287Z,101805.01
2017-11-14T11:20:58.975Z,101808.09
2017-11-14T11:23:25.229Z,101815.06
2017-11-14T11:25:51.447Z,101804.18
2017-11-14T11:28:18.374Z,101805.49
2017-11-14T11:30:44.710Z,101813.33
2017-11-14T11:33:10.960Z,101808.09
2017-11-14T11:35:37.631Z,101803.66
2017-11-14T11:38:03.904Z,101812.79
2017-11-14T11:40:31.248Z,101798.83
2017-11-14T11:42:57.533Z,101804.02
2017-11-14T11:45:23.764Z,101800.08
2017-11-14T11:47:49.955Z,101797.45
2017-11-14T11:50:16.243Z,101804.42
2017-11-14T11:52:42.486Z,101800.44
2017-11-14T11:55:08.923Z,101800.03
2017-11-14T11:57:35.180Z,101795.68
2017-11-14T12:00:01.515Z,101794.77
2017-11-14T12:02:27.735Z,101800.78
2017-11-14T12:04:54.361Z,101799.37
2017-11-14T12:07:20.808Z,101802.31
2017-11-14T12:09:47.042Z,101799.56
2017-11-14T12:12:13.632Z,101797.20
2017-11-14T12:14:40.082Z,101803.63
2017-11-14T12:17:06.311Z,101807.44
2017-11-14T12:19:32.628Z,101807.78
2017-11-14T12:21:59.092Z,101806.77
2017-11-14T12:24:25.592Z,101802.73
2017-11-14T12:26:51.960Z,101813.20
2017-11-14T12:29:18.176Z,101804.38
2017-11-14T12:31:44.425Z,101799.93
2017-11-14T12:34:10.717Z,101805.56
2017-11-14T12:36:36.954Z,101798.47
2017-11-14T12:39:03.293Z,101792.75
2017-11-14T12:41:29.660Z,101796.27
2017-11-14T12:43:55.863Z,101800.63
2017-11-14T12:46:22.106Z,101800.16
2017-11-14T12:48:48.458Z,101793.59
2017-11-14T12:51:14.911Z,101791.33
2017-11-14T12:53:41.220Z,101791.72
2017-11-14T12:56:07.591Z,101796.97
2017-11-14T12:58:33.787Z,101800.58
2017-11-14T13:01:00.099Z,101799.68
2017-11-14T13:03:26.364Z,101803.67
2017-11-14T13:05:52.608Z,101800.13
2017-11-14T13:08:18.833Z,101802.30
2017-11-14T13:10:45.108Z,101794.84
2017-11-14T13:13:11.322Z,101796.57
2017-11-14T13:15:37.544Z,101804.88
2017-11-14T13:18:03.878Z,101794.74
2017-11-14T13:20:30.325Z,101793.89
2017-11-14T13:22:56.679Z,101809.59
2017-11-14T13:25:22.897Z,101795.56
2017-11-14T13:27:49.116Z,101791.17
2017-11-14T13:30:15.496Z,101799.45
2017-11-14T13:32:41.714Z,101803.78
2017-11-14T13:35:08.028Z,101806.80
2017-11-14T13:37:34.275Z,101806.31
2017-11-14T13:40:00.887Z,101804.09
2017-11-14T13:42:27.093Z,101819.01
2017-11-14T13:44:53.322Z,101822.03
2017-11-14T13:47:19.666Z,101805.41
2017-11-14T13:49:45.889Z,101807.25
2017-11-14T13:52:12.444Z,101813.77
2017-11-14T13:54:38.727Z,101815.90
2017-11-14T13:57:05.206Z,101819.81
2017-11-14T13:59:31.739Z,101818.97
2017-11-14T14:01:58.172Z,101814.56
2017-11-14T14:04:24.431Z,101810.61
2017-11-14T14:06:50.644Z,101827.25
2017-11-14T14:09:17.543Z,101815.86
2017-11-14T14:11:43.734Z,101821.48
2017-11-14T14:14:09.976Z,101830.25
2017-11-14T14:16:36.267Z,101836.81
2017-11-14T14:19:02.492Z,101831.11
2017-11-14T14:21:29.021Z,101834.11
2017-11-14T14:23:55.289Z,101838.93
2017-11-14T14:26:21.744Z,101845.10
2017-11-14T14:28:47.950Z,101835.03
2017-11-14T14:31:14.310Z,101847.30
2017-11-14T14:33:40.607Z,101845.16
2017-11-14T14:36:06.838Z,101846.89
2017-11-14T14:38:33.406Z,101855.62
2017-11-14T14:40:59.640Z,101860.88
2017-11-14T14:43:25.856Z,101866.98
2017-11-14T14:45:52.124Z,101872.66
2017-11-14T14:48:18.340Z,101881.84
2017-11-14T14:50:44.539Z,101880.47
2017-11-14T14:53:10.802Z,101889.23
2017-11-14T14:55:37.009Z,101898.88
2017-11-14T14:58:03.569Z,101898.04
2017-11-14T15:00:29.864Z,101908.11
2017-11-14T15:02:56.088Z,101909.40
2017-11-14T15:05:22.552Z,101903.69
2017-11-14T15:07:49.099Z,101909.42
2017-11-14T15:10:15.341Z,101923.44
2017-11-14T15:12:41.587Z,101918.17
2017-11-14T15:15:08.239Z,101914.63
2017-11-14T15:17:34.453Z,101913.73
2017-11-14T15:20:00.660Z,101914.59
2017-11-14T15:22:26.930Z,101909.36
2017-11-14T15:24:53.510Z,101902.33
2017-11-14T15:27:19.712Z,101911.04
2017-11-14T15:29:46.367Z,101916.34
2017-11-14T15:32:12.618Z,101911.08
2017-11-14T15:34:38.868Z,101912.80
2017-11-14T15:37:05.523Z,101915.84
2017-11-14T15:39:31.730Z,101920.26
2017-11-14T15:41:58.171Z,101921.98
2017-11-14T15:44:24.520Z,101919.79
2017-11-14T15:46:50.736Z,101929.03
2017-11-14T15:49:17.321Z,101936.47
2017-11-14T15:51:43.863Z,101935.14
2017-11-14T15:54:10.109Z,101940.39
2017-11-14T15:56:36.328Z,101941.69
2017-11-14T15:59:02.589Z,101943.44
2017-11-14T16:01:28.910Z,101951.79
2017-11-14T16:03:55.111Z,101948.32
2017-11-14T16:06:21.421Z,101948.77
2017-11-14T16:08:47.637Z,101954.47
2017-11-14T16:11:13.845Z,101954.87
2017-11-14T16:13:40.409Z,101958.38
2017-11-14T16:16:06.962Z,101961.43
2017-11-14T16:18:33.196Z,101964.88
2017-11-14T16:20:59.461Z,101974.49
2017-11-14T16:23:25.718Z,101974.45
2017-11-14T16:25:51.940Z,101968.30
2017-11-14T16:28:18.208Z,101971.78
2017-11-14T16:30:44.447Z,101971.78
2017-11-14T16:33:16.991Z,101975.25
2017-11-14T16:35:43.577Z,101973.49
2017-11-14T16:38:09.796Z,101975.23
2017-11-14T16:40:35.998Z,101972.19
2017-11-14T16:43:02.371Z,101980.95
2017-11-14T16:45:28.584Z,101979.17
2017-11-14T16:47:54.796Z,101975.21
2017-11-14T16:50:21.471Z,101976.55
2017-11-14T16:52:47.707Z,101972.17
2017-11-14T16:55:13.931Z,101982.70
2017-11-14T16:57:40.211Z,101983.11
2017-11-14T17:00:06.443Z,101983.59
2017-11-14T17:02:32.736Z,101993.27
2017-11-14T17:04:59.305Z,101987.08
2017-11-14T17:07:25.537Z,101996.30
2017-11-14T17:09:51.757Z,102000.67
2017-11-14T17:12:18.328Z,102000.66
2017-11-14T17:14:44.829Z,102003.78
2017-11-14T17:17:11.369Z,102005.95
2017-11-14T17:19:37.732Z,102007.28
2017-11-14T17:22:04.203Z,102004.62
2017-11-14T17:24:31.133Z,102002.38
2017-11-14T17:26:58.125Z,102007.18
2017-11-14T17:29:24.372Z,102013.26
2017-11-14T17:31:50.587Z,102018.53
2017-11-14T17:34:17.238Z,102016.31
2017-11-14T17:36:43.450Z,102017.19
2017-11-14T17:39:09.682Z,102020.23
2017-11-14T17:41:36.311Z,102018.50
2017-11-14T17:44:02.640Z,102020.27
2017-11-14T17:46:28.865Z,102025.06
2017-11-14T17:48:55.228Z,102020.77
2017-11-14T17:51:21.461Z,102027.86
2017-11-14T17:53:47.694Z,102028.25
2017-11-14T17:56:13.984Z,102033.97
2017-11-14T17:58:40.204Z,102038.38
2017-11-14T18:01:06.442Z,102037.09
2017-11-14T18:03:33.086Z,102051.10
2017-11-14T18:05:59.452Z,102047.16
2017-11-14T18:08:25.659Z,102053.74
2017-11-14T18:10:51.950Z,102060.34
2017-11-14T18:13:18.161Z,102066.05
2017-11-14T18:15:44.405Z,102057.72
2017-11-14T18:18:10.770Z,102059.08
2017-11-14T18:20:37.149Z,102066.16
2017-11-14T18:23:03.741Z,102072.70
2017-11-14T18:25:30.549Z,102069.63
2017-11-14T18:27:56.767Z,102071.36
2017-11-14T18:30:23.064Z,102071.81
2017-11-14T18:32:49.651Z,102076.66
2017-11-14T18:35:16.148Z,102084.53
2017-11-14T18:37:42.595Z,102081.02
2017-11-14T18:40:09.325Z,102082.38
2017-11-14T18:42:35.563Z,102092.46
2017-11-14T18:45:01.780Z,102093.38
2017-11-14T18:47:28.038Z,102095.13
2017-11-14T18:49:54.239Z,102099.02
2017-11-14T18:52:20.512Z,102095.96
2017-11-14T18:54:46.788Z,102100.38
2017-11-14T18:57:13.246Z,102109.21
2017-11-14T18:59:39.713Z,102111.87
2017-11-14T19:02:06.213Z,102107.91
2017-11-14T19:04:32.437Z,102104.34
2017-11-14T19:06:58.642Z,102106.98
2017-11-14T19:09:24.879Z,102113.56
2017-11-14T19:11:51.091Z,102107.81
2017-11-14T19:14:17.438Z,102119.64
2017-11-14T19:16:43.896Z,102117.94
2017-11-14T19:19:10.121Z,102122.27
2017-11-14T19:21:36.415Z,102123.12
2017-11-14T19:24:02.704Z,102124.05
2017-11-14T19:26:29.143Z,102125.36
2017-11-14T19:28:55.753Z,102124.50
2017-11-14T19:31:22.249Z,102123.16
2017-11-14T19:33:48.468Z,102131.53
2017-11-14T19:36:14.829Z,102129.77
2017-11-14T19:38:41.045Z,102129.36
2017-11-14T19:41:08.150Z,102136.38
2017-11-14T19:43:35.519Z,102131.58
2017-11-14T19:46:01.808Z,102130.69
2017-11-14T19:48:28.272Z,102132.46
2017-11-14T19:50:54.844Z,102131.21
2017-11-14T19:53:21.081Z,102132.50
2017-11-14T19:55:47.287Z,102136.89
2017-11-14T19:58:13.869Z,102133.84
2017-11-14T20:00:40.310Z,102136.52
2017-11-14T20:03:06.501Z,102140.41
2017-11-14T20:05:32.777Z,102133.84
2017-11-14T20:07:58.975Z,102140.00
2017-11-14T20:10:25.203Z,102137.38
2017-11-14T20:12:51.504Z,102130.80
2017-11-14T20:15:17.713Z,102137.83
2017-11-14T20:17:43.939Z,102139.55
2017-11-14T20:20:10.627Z,102145.66
2017-11-14T20:22:37.139Z,102150.48
2017-11-14T20:25:03.455Z,102153.98
2017-11-14T20:27:29.965Z,102152.25
2017-11-14T20:29:56.170Z,102149.60
2017-11-14T20:32:22.500Z,102155.73
2017-11-14T20:34:48.771Z,102146.97
2017-11-14T20:37:14.984Z,102161.47
2017-11-14T20:39:41.464Z,102153.97
2017-11-14T20:42:07.708Z,102157.94
2017-11-14T20:44:33.931Z,102155.31
2017-11-14T20:47:00.215Z,102164.09
2017-11-14T20:49:27.572Z,102166.76
2017-11-14T20:51:53.937Z,102167.62
2017-11-14T20:54:26.053Z,102158.44
2017-11-14T20:56:52.298Z,102155.39
2017-11-14T20:59:18.580Z,102158.89
2017-11-14T21:01:44.790Z,102159.34
2017-11-14T21:04:11.015Z,102156.31
2017-11-14T21:06:37.278Z,102156.73
2017-11-14T21:09:03.602Z,102162.43
2017-11-14T21:11:29.817Z,102161.17
2017-11-14T21:13:56.081Z,102169.97
2017-11-14T21:16:22.292Z,102170.47
2017-11-14T21:18:48.620Z,102174.42
2017-11-14T21:21:15.196Z,102171.39
2017-11-14T21:23:41.587Z,102174.93
2017-11-14T21:26:07.891Z,102175.83
2017-11-14T21:28:34.171Z,102170.98
2017-11-14T21:31:00.441Z,102168.34
2017-11-14T21:33:26.742Z,102164.81
2017-11-14T21:35:53.253Z,102164.39
2017-11-14T21:38:19.459Z,102171.45
2017-11-14T21:40:45.681Z,102171.89
2017-11-14T21:43:12.025Z,102171.89
2017-11-14T21:45:38.255Z,102177.59
2017-11-14T21:48:04.483Z,102176.28
2017-11-14T21:50:30.845Z,102180.28
2017-11-14T21:52:57.074Z,102180.73
2017-11-14T21:55:23.286Z,102183.80
2017-11-14T21:57:49.926Z,102186.89
2017-11-14T22:00:16.139Z,102186.03
2017-11-14T22:02:42.583Z,102185.13
2017-11-14T22:05:09.432Z,102195.16
2017-11-14T22:07:35.648Z,102192.50
2017-11-14T22:10:01.856Z,102191.16
2017-11-14T22:12:28.205Z,102190.69
2017-11-14T22:14:54.426Z,102196.42
2017-11-14T22:17:20.657Z,102206.05
2017-11-14T22:19:47.617Z,102205.20
2017-11-14T22:22:13.833Z,102205.68
2017-11-14T22:24:40.063Z,102210.06
2017-11-14T22:27:06.449Z,102205.79
2017-11-14T22:29:33.064Z,102208.41
2017-11-14T22:31:59.688Z,102203.54
2017-11-14T22:34:27.201Z,102212.30
2017-11-14T22:36:53.671Z,102214.03
2017-11-14T22:39:22.955Z,102210.52
2017-11-14T22:41:50.287Z,102219.75
2017-11-14T22:44:16.513Z,102217.55
2017-11-14T22:46:43.837Z,102214.94
2017-11-14T22:49:11.932Z,102218.45
2017-11-14T22:51:38.574Z,102219.77
2017-11-14T22:54:04.963Z,102225.05
2017-11-14T22:59:03.022Z,102220.27
2017-11-14T23:01:29.428Z,102222.92
2017-11-14T23:03:55.652Z,102215.89
2017-11-14T23:06:22.100Z,102215.45
2017-11-14T23:08:48.487Z,102221.16
2017-11-14T23:11:14.888Z,102220.73
2017-11-14T23:13:41.129Z,102226.02
2017-11-14T23:16:13.727Z,102220.31
2017-11-14T23:18:46.081Z,102226.00
2017-11-14T23:21:12.302Z,102226.05
2017-11-14T23:23:38.893Z,102223.41
2017-11-14T23:26:07.699Z,102233.48
2017-11-14T23:28:33.936Z,102233.93
2017-11-14T23:31:00.293Z,102231.30
2017-11-14T23:33:26.686Z,102227.77
2017-11-14T23:35:52.922Z,102221.64
2017-11-14T23:38:19.224Z,102224.31
2017-11-14T23:40:45.499Z,102228.27
2017-11-14T23:43:11.720Z,102229.55
2017-11-14T23:45:38.219Z,102233.06
2017-11-14T23:48:04.454Z,102235.69
2017-11-14T23:50:30.713Z,102236.14
2017-11-14T23:52:57.020Z,102238.81
2017-11-14T23:55:23.247Z,102234.90
2017-11-14T23:57:49.478Z,102226.56
